createdAt,value
2019-05-23T00:02:24.034Z,0.20
2019-05-23T00:04:54.487Z,0.25
2019-05-23T00:07:31.700Z,0.23
2019-05-23T00:10:02.647Z,0.30
2019-05-23T00:12:42.989Z,0.20
2019-05-23T00:15:22.595Z,0.33
2019-05-23T00:17:51.861Z,0.23
2019-05-23T00:20:21.232Z,0.30
2019-05-23T00:22:51.619Z,0.30
2019-05-23T00:25:22.223Z,0.20
2019-05-23T00:27:53.389Z,0.28
2019-05-23T00:30:24.071Z,0.30
2019-05-23T00:32:56.497Z,0.10
2019-05-23T00:35:26.892Z,0.30
2019-05-23T00:37:56.874Z,0.20
2019-05-23T00:40:26.459Z,0.20
2019-05-23T00:42:55.990Z,0.20
2019-05-23T00:45:25.541Z,0.20
2019-05-23T00:47:55.339Z,0.20
2019-05-23T00:50:26.332Z,0.25
2019-05-23T00:52:55.250Z,0.10
2019-05-23T00:55:26.434Z,0.10
2019-05-23T00:58:08.249Z,0.30
2019-05-23T01:00:37.357Z,0.13
2019-05-23T01:03:06.960Z,0.30
2019-05-23T01:05:36.838Z,0.30
2019-05-23T01:08:06.193Z,0.20
2019-05-23T01:10:35.275Z,0.20
2019-05-23T01:13:05.709Z,0.30
2019-05-23T01:15:35.215Z,0.28
2019-05-23T01:18:05.392Z,0.23
2019-05-23T01:20:39.015Z,0.28
2019-05-23T01:23:09.698Z,0.20
2019-05-23T01:25:40.366Z,0.20
2019-05-23T01:28:10.082Z,0.15
2019-05-23T01:30:43.751Z,0.55
2019-05-23T01:33:13.272Z,0.25
2019-05-23T01:35:42.783Z,0.30
2019-05-23T01:38:12.633Z,0.20
2019-05-23T01:40:42.739Z,0.20
2019-05-23T01:43:12.382Z,0.23
2019-05-23T01:45:42.154Z,0.20
2019-05-23T01:48:11.450Z,0.20
2019-05-23T01:50:40.363Z,0.20
2019-05-23T01:53:10.374Z,0.30
2019-05-23T01:55:39.558Z,0.17
2019-05-23T01:58:09.566Z,0.37
2019-05-23T02:00:38.518Z,0.30
2019-05-23T02:03:07.564Z,0.30
2019-05-23T02:05:37.094Z,0.30
2019-05-23T02:08:08.937Z,0.40
2019-05-23T02:10:37.936Z,0.25
2019-05-23T02:13:07.325Z,0.20
2019-05-23T02:15:37.195Z,0.20
2019-05-23T02:18:06.535Z,0.28
2019-05-23T02:20:37.264Z,0.47
2019-05-23T02:23:07.729Z,0.20
2019-05-23T02:25:37.046Z,0.25
2019-05-23T02:28:08.605Z,0.20
2019-05-23T02:30:37.941Z,0.20
2019-05-23T02:33:07.354Z,0.37
2019-05-23T02:35:36.638Z,0.37
2019-05-23T02:38:13.082Z,0.40
2019-05-23T02:40:57.296Z,0.33
2019-05-23T02:43:28.020Z,0.40
2019-05-23T02:46:04.863Z,0.25
2019-05-23T02:48:46.244Z,0.50
2019-05-23T02:51:27.883Z,0.57
2019-05-23T02:53:58.982Z,0.65
2019-05-23T02:56:31.327Z,0.57
2019-05-23T02:59:24.390Z,0.57
2019-05-23T03:02:20.544Z,0.30
2019-05-23T03:04:50.291Z,0.60
2019-05-23T03:07:21.962Z,0.57
2019-05-23T03:09:51.984Z,0.45
2019-05-23T03:12:25.131Z,0.40
2019-05-23T03:14:53.573Z,0.55
2019-05-23T03:17:25.349Z,0.47
2019-05-23T03:19:58.169Z,0.40
2019-05-23T03:22:37.411Z,0.70
2019-05-23T03:25:10.849Z,0.70
2019-05-23T03:27:42.899Z,0.42
2019-05-23T03:30:22.858Z,0.47
2019-05-23T03:32:53.443Z,0.40
2019-05-23T03:35:27.068Z,0.47
2019-05-23T03:37:56.676Z,0.60
2019-05-23T03:40:26.114Z,0.47
2019-05-23T03:42:55.885Z,0.40
2019-05-23T03:45:26.430Z,0.50
2019-05-23T03:47:55.613Z,0.40
2019-05-23T03:50:26.153Z,0.53
2019-05-23T03:52:57.127Z,0.50
2019-05-23T03:55:28.704Z,0.72
2019-05-23T03:57:57.882Z,0.50
2019-05-23T04:00:28.432Z,0.50
2019-05-23T04:02:58.071Z,0.42
2019-05-23T04:05:27.488Z,0.47
2019-05-23T04:07:57.066Z,0.50
2019-05-23T04:10:25.965Z,0.70
2019-05-23T04:12:54.994Z,0.50
2019-05-23T04:15:24.036Z,0.37
2019-05-23T04:17:53.220Z,0.60
2019-05-23T04:20:22.529Z,0.65
2019-05-23T04:22:51.490Z,0.57
2019-05-23T04:25:20.490Z,0.60
2019-05-23T04:27:50.108Z,0.55
2019-05-23T04:30:19.084Z,0.60
2019-05-23T04:32:48.307Z,0.70
2019-05-23T04:35:17.509Z,0.60
2019-05-23T04:37:46.470Z,0.70
2019-05-23T04:40:15.490Z,0.55
2019-05-23T04:42:44.415Z,0.68
2019-05-23T04:45:13.607Z,0.80
2019-05-23T04:47:42.510Z,0.50
2019-05-23T04:50:14.249Z,0.70
2019-05-23T04:52:43.178Z,0.50
2019-05-23T04:55:13.112Z,0.60
2019-05-23T04:57:43.131Z,0.70
2019-05-23T05:00:15.134Z,0.70
2019-05-23T05:02:45.773Z,0.60
2019-05-23T05:05:15.886Z,0.68
2019-05-23T05:07:45.042Z,0.70
2019-05-23T05:10:17.892Z,0.50
2019-05-23T05:12:47.116Z,0.60
2019-05-23T05:15:16.727Z,0.50
2019-05-23T05:17:46.342Z,0.60
2019-05-23T05:20:15.957Z,0.50
2019-05-23T05:22:45.982Z,0.60
2019-05-23T05:25:16.047Z,0.65
2019-05-23T05:27:44.992Z,0.30
2019-05-23T05:30:14.587Z,0.40
2019-05-23T05:32:45.541Z,0.50
2019-05-23T05:35:15.323Z,0.40
2019-05-23T05:37:44.278Z,0.30
2019-05-23T05:40:14.108Z,0.55
2019-05-23T05:42:44.298Z,0.60
2019-05-23T05:45:13.835Z,0.50
2019-05-23T05:47:42.948Z,0.62
2019-05-23T05:50:14.364Z,0.50
2019-05-23T05:52:43.394Z,0.60
2019-05-23T05:55:13.525Z,0.30
2019-05-23T05:57:42.623Z,0.50
2019-05-23T06:00:30.047Z,0.35
2019-05-23T06:03:05.347Z,0.50
2019-05-23T06:05:39.452Z,0.60
2019-05-23T06:08:11.077Z,0.45
2019-05-23T06:10:40.582Z,0.33
2019-05-23T06:13:09.498Z,0.40
2019-05-23T06:15:38.855Z,0.50
2019-05-23T06:18:08.411Z,0.45
2019-05-23T06:20:41.182Z,0.40
2019-05-23T06:23:12.080Z,0.60
2019-05-23T06:25:41.284Z,0.50
2019-05-23T06:28:11.006Z,0.55
2019-05-23T06:30:40.753Z,0.62
2019-05-23T06:33:22.550Z,0.35
2019-05-23T06:35:41.400Z,0.42
2019-05-23T06:38:11.125Z,0.65
2019-05-23T06:40:47.015Z,0.55
2019-05-23T06:43:16.210Z,0.72
2019-05-23T06:45:45.827Z,0.50
2019-05-23T06:48:15.729Z,0.60
2019-05-23T06:50:45.290Z,0.55
2019-05-23T06:53:14.232Z,0.50
2019-05-23T06:55:43.192Z,0.50
2019-05-23T06:58:12.744Z,0.40
2019-05-23T07:00:42.912Z,0.70
2019-05-23T07:03:12.623Z,0.60
2019-05-23T07:05:43.436Z,0.50
2019-05-23T07:08:13.189Z,0.55
2019-05-23T07:10:44.296Z,0.30
2019-05-23T07:13:14.235Z,0.30
2019-05-23T07:15:43.704Z,0.65
2019-05-23T07:18:13.228Z,0.50
2019-05-23T07:20:42.153Z,0.35
2019-05-23T07:23:12.722Z,0.40
2019-05-23T07:25:41.985Z,1.30
2019-05-23T07:28:10.907Z,0.60
2019-05-23T07:30:39.913Z,0.50
2019-05-23T07:33:10.083Z,0.70
2019-05-23T07:35:39.045Z,0.40
2019-05-23T07:38:07.995Z,0.35
2019-05-23T07:40:37.553Z,0.40
2019-05-23T07:43:07.784Z,0.88
2019-05-23T07:45:39.925Z,0.50
2019-05-23T07:48:09.224Z,0.40
2019-05-23T07:50:38.168Z,0.40
2019-05-23T07:53:07.772Z,0.50
2019-05-23T07:55:38.355Z,0.50
2019-05-23T07:58:07.631Z,0.23
2019-05-23T08:00:50.556Z,0.40
2019-05-23T08:03:31.976Z,0.40
2019-05-23T08:06:01.138Z,0.42
2019-05-23T08:08:30.016Z,0.45
2019-05-23T08:10:59.838Z,0.50
2019-05-23T08:13:28.833Z,0.47
2019-05-23T08:15:57.840Z,0.60
2019-05-23T08:18:27.117Z,0.45
2019-05-23T08:20:56.323Z,0.60
2019-05-23T08:23:25.632Z,0.40
2019-05-23T08:25:54.980Z,0.50
2019-05-23T08:28:24.091Z,0.60
2019-05-23T08:30:53.096Z,0.40
2019-05-23T08:33:22.450Z,0.37
2019-05-23T08:35:51.854Z,0.40
2019-05-23T08:38:21.798Z,0.40
2019-05-23T08:40:51.664Z,0.50
2019-05-23T08:43:20.558Z,0.47
2019-05-23T08:45:50.550Z,0.50
2019-05-23T08:48:20.073Z,0.50
2019-05-23T08:50:51.405Z,0.40
2019-05-23T08:53:19.701Z,0.47
2019-05-23T08:55:48.821Z,0.50
2019-05-23T08:58:17.965Z,0.50
2019-05-23T09:00:47.005Z,0.45
2019-05-23T09:03:17.322Z,0.40
2019-05-23T09:05:47.947Z,0.60
2019-05-23T09:08:18.367Z,0.53
2019-05-23T09:10:48.328Z,0.50
2019-05-23T09:13:17.260Z,0.70
2019-05-23T09:15:46.369Z,0.47
2019-05-23T09:18:15.319Z,0.45
2019-05-23T09:20:44.736Z,0.50
2019-05-23T09:23:14.056Z,0.50
2019-05-23T09:25:43.572Z,0.40
2019-05-23T09:28:13.070Z,0.45
2019-05-23T09:30:42.106Z,1.05
2019-05-23T09:33:11.194Z,0.50
2019-05-23T09:35:40.802Z,0.47
2019-05-23T09:38:09.804Z,0.72
2019-05-23T09:40:38.780Z,0.30
2019-05-23T09:43:08.383Z,0.68
2019-05-23T09:45:37.514Z,0.62
2019-05-23T09:48:06.761Z,0.47
2019-05-23T09:50:36.062Z,0.55
2019-05-23T09:53:05.163Z,0.60
2019-05-23T09:55:34.925Z,0.60
2019-05-23T09:58:04.071Z,0.47
2019-05-23T10:00:36.328Z,0.50
2019-05-23T10:03:06.550Z,0.50
2019-05-23T10:05:42.646Z,0.47
2019-05-23T10:08:06.175Z,0.50
2019-05-23T10:10:35.476Z,0.60
2019-05-23T10:13:04.876Z,0.45
2019-05-23T10:15:39.042Z,0.40
2019-05-23T10:18:10.054Z,0.60
2019-05-23T10:20:39.584Z,0.60
2019-05-23T10:23:11.205Z,0.55
2019-05-23T10:25:40.118Z,0.80
2019-05-23T10:28:09.640Z,0.78
2019-05-23T10:30:38.601Z,0.90
2019-05-23T10:33:12.082Z,0.60
2019-05-23T10:35:38.387Z,0.98
2019-05-23T10:38:07.379Z,0.80
2019-05-23T10:40:36.574Z,0.72
2019-05-23T10:43:05.873Z,0.50
2019-05-23T10:45:35.058Z,0.70
2019-05-23T10:48:05.597Z,0.53
2019-05-23T10:50:44.399Z,0.60
2019-05-23T10:53:05.728Z,0.42
2019-05-23T10:55:34.728Z,0.70
2019-05-23T10:58:04.072Z,0.50
2019-05-23T11:00:33.913Z,0.80
2019-05-23T11:03:03.041Z,0.50
2019-05-23T11:05:32.024Z,0.82
2019-05-23T11:08:02.979Z,0.60
2019-05-23T11:10:32.095Z,0.70
2019-05-23T11:13:01.096Z,0.50
2019-05-23T11:15:30.752Z,0.62
2019-05-23T11:17:59.660Z,0.47
2019-05-23T11:20:28.958Z,0.70
2019-05-23T11:22:57.946Z,0.57
2019-05-23T11:25:28.588Z,0.40
2019-05-23T11:27:58.827Z,0.70
2019-05-23T11:30:29.452Z,0.60
2019-05-23T11:32:58.347Z,0.50
2019-05-23T11:35:27.657Z,0.35
2019-05-23T11:37:56.699Z,0.40
2019-05-23T11:40:33.630Z,0.72
2019-05-23T11:45:31.667Z,0.30
2019-05-23T11:48:00.606Z,0.40
2019-05-23T11:50:29.646Z,0.53
2019-05-23T11:52:58.975Z,0.50
2019-05-23T11:55:28.134Z,0.65
2019-05-23T11:57:57.157Z,0.50
2019-05-23T12:00:49.960Z,0.50
2019-05-23T12:03:18.980Z,0.65
2019-05-23T12:05:47.889Z,0.60
2019-05-23T12:08:16.888Z,0.60
2019-05-23T12:10:45.928Z,0.70
2019-05-23T12:13:14.932Z,0.60
2019-05-23T12:15:46.483Z,0.68
2019-05-23T12:18:15.393Z,0.50
2019-05-23T12:20:44.388Z,0.75
2019-05-23T12:23:13.378Z,0.68
2019-05-23T12:25:42.367Z,0.72
2019-05-23T12:28:12.362Z,0.75
2019-05-23T12:30:41.504Z,0.80
2019-05-23T12:33:10.437Z,0.90
2019-05-23T12:35:39.327Z,0.70
2019-05-23T12:38:08.528Z,0.65
2019-05-23T12:40:37.438Z,0.80
2019-05-23T12:43:06.453Z,0.55
2019-05-23T12:45:35.396Z,0.60
2019-05-23T12:48:08.882Z,0.42
2019-05-23T12:50:42.521Z,0.45
2019-05-23T12:53:12.995Z,0.42
2019-05-23T12:55:42.065Z,0.55
2019-05-23T12:58:11.068Z,0.60
2019-05-23T13:00:41.851Z,0.40
2019-05-23T13:03:13.020Z,0.60
2019-05-23T13:05:43.097Z,1.32
2019-05-23T13:08:12.147Z,0.45
2019-05-23T13:10:41.236Z,0.42
2019-05-23T13:13:10.244Z,0.50
2019-05-23T13:15:39.364Z,0.42
2019-05-23T13:18:08.300Z,0.50
2019-05-23T13:20:37.814Z,0.60
2019-05-23T13:23:07.128Z,0.50
2019-05-23T13:25:36.511Z,0.50
2019-05-23T13:28:05.538Z,0.53
2019-05-23T13:30:34.441Z,0.50
2019-05-23T13:33:04.134Z,0.40
2019-05-23T13:35:33.812Z,0.50
2019-05-23T13:38:02.712Z,0.30
2019-05-23T13:40:33.985Z,0.42
2019-05-23T13:43:06.695Z,0.50
2019-05-23T13:45:35.132Z,0.42
2019-05-23T13:48:04.680Z,0.50
2019-05-23T13:50:34.739Z,0.50
2019-05-23T13:53:03.992Z,0.60
2019-05-23T13:55:34.684Z,0.33
2019-05-23T13:58:03.753Z,0.60
2019-05-23T14:00:34.575Z,0.68
2019-05-23T14:03:05.198Z,0.70
2019-05-23T14:05:42.106Z,0.53
2019-05-23T14:08:13.251Z,0.50
2019-05-23T14:10:43.201Z,0.53
2019-05-23T14:13:12.413Z,0.70
2019-05-23T14:15:43.236Z,0.60
2019-05-23T14:18:14.032Z,0.57
2019-05-23T14:20:43.510Z,0.33
2019-05-23T14:23:31.603Z,0.50
2019-05-23T14:26:02.226Z,0.60
2019-05-23T14:28:31.497Z,0.42
2019-05-23T14:31:05.931Z,0.50
2019-05-23T14:33:42.238Z,0.85
2019-05-23T14:38:41.990Z,0.53
2019-05-23T14:41:11.203Z,0.40
2019-05-23T14:43:40.426Z,0.33
2019-05-23T14:46:14.507Z,0.50
2019-05-23T14:48:48.470Z,0.50
2019-05-23T14:51:25.417Z,0.35
2019-05-23T14:53:59.094Z,0.40
2019-05-23T14:56:32.753Z,0.50
2019-05-23T14:59:02.106Z,0.57
2019-05-23T15:01:32.844Z,0.30
2019-05-23T15:04:02.716Z,0.50
2019-05-23T15:06:31.937Z,0.40
2019-05-23T15:09:00.910Z,0.50
2019-05-23T15:11:29.922Z,0.30
2019-05-23T15:13:59.130Z,0.70
2019-05-23T15:16:28.190Z,0.62
2019-05-23T15:18:57.105Z,0.60
2019-05-23T15:21:26.010Z,0.42
2019-05-23T15:23:54.977Z,0.40
2019-05-23T15:26:24.082Z,0.50
2019-05-23T15:28:53.177Z,0.42
2019-05-23T15:31:22.410Z,0.50
2019-05-23T15:33:51.364Z,0.68
2019-05-23T15:36:20.363Z,0.50
2019-05-23T15:38:49.317Z,0.50
2019-05-23T15:41:18.223Z,0.60
2019-05-23T15:43:47.270Z,0.65
2019-05-23T15:46:16.451Z,0.50
2019-05-23T15:48:45.662Z,0.55
2019-05-23T15:51:16.306Z,0.65
2019-05-23T15:53:52.942Z,0.75
2019-05-23T15:56:35.364Z,0.60
2019-05-23T15:59:24.833Z,0.60
2019-05-23T16:02:04.424Z,0.70
2019-05-23T16:04:33.670Z,0.60
2019-05-23T16:07:02.580Z,0.80
2019-05-23T16:09:31.577Z,0.70
2019-05-23T16:12:00.673Z,0.70
2019-05-23T16:14:29.834Z,0.70
2019-05-23T16:16:58.755Z,0.72
2019-05-23T16:19:27.807Z,0.70
2019-05-23T16:21:56.711Z,0.60
2019-05-23T16:24:26.422Z,0.50
2019-05-23T16:26:55.524Z,0.72
2019-05-23T16:29:24.617Z,0.75
2019-05-23T16:31:53.833Z,0.88
2019-05-23T16:34:23.155Z,0.70
2019-05-23T16:36:52.171Z,0.70
2019-05-23T16:39:21.182Z,0.70
2019-05-23T16:41:50.166Z,0.80
2019-05-23T16:44:19.648Z,0.80
2019-05-23T16:46:48.558Z,0.60
2019-05-23T16:49:17.577Z,0.50
2019-05-23T16:51:46.586Z,0.60
2019-05-23T16:54:17.073Z,0.70
2019-05-23T16:56:54.702Z,0.70
2019-05-23T16:59:26.632Z,0.90
2019-05-23T17:02:05.637Z,0.75
2019-05-23T17:04:33.521Z,0.93
2019-05-23T17:07:04.313Z,0.82
2019-05-23T17:09:40.880Z,1.00
2019-05-23T17:12:27.727Z,0.70
2019-05-23T17:15:10.201Z,0.60
2019-05-23T17:18:00.625Z,0.72
2019-05-23T17:20:19.542Z,0.62
2019-05-23T17:22:49.167Z,0.90
2019-05-23T17:25:36.183Z,0.70
2019-05-23T17:28:13.230Z,0.82
2019-05-23T17:30:43.764Z,0.78
2019-05-23T17:33:12.762Z,0.93
2019-05-23T17:35:42.160Z,0.55
2019-05-23T17:38:11.092Z,1.32
2019-05-23T17:40:39.986Z,0.60
2019-05-23T17:43:09.295Z,0.70
2019-05-23T17:45:38.842Z,0.78
2019-05-23T17:48:08.068Z,0.68
2019-05-23T17:50:37.129Z,0.60
2019-05-23T17:53:06.033Z,0.72
2019-05-23T17:55:34.957Z,0.60
2019-05-23T17:58:04.243Z,0.60
2019-05-23T18:00:34.746Z,0.80
2019-05-23T18:03:04.043Z,0.80
2019-05-23T18:05:32.996Z,0.75
2019-05-23T18:08:01.888Z,0.62
2019-05-23T18:10:43.945Z,0.75
2019-05-23T18:13:03.593Z,0.70
2019-05-23T18:15:32.913Z,0.75
2019-05-23T18:18:02.326Z,0.90
2019-05-23T18:20:31.900Z,0.80
2019-05-23T18:23:01.253Z,0.80
2019-05-23T18:25:30.230Z,0.88
2019-05-23T18:27:59.557Z,0.68
2019-05-23T18:30:33.219Z,0.70
2019-05-23T18:33:02.918Z,0.90
2019-05-23T18:35:32.142Z,0.70
2019-05-23T18:38:01.469Z,1.00
2019-05-23T18:40:30.814Z,1.00
2019-05-23T18:43:00.044Z,1.45
2019-05-23T18:45:31.694Z,0.98
2019-05-23T18:48:00.632Z,0.70
2019-05-23T18:50:31.480Z,0.90
2019-05-23T18:53:00.765Z,0.60
2019-05-23T18:55:29.895Z,0.80
2019-05-23T18:57:59.127Z,0.72
2019-05-23T19:00:46.287Z,0.80
2019-05-23T19:03:15.221Z,0.70
2019-05-23T19:05:47.358Z,0.80
2019-05-23T19:08:16.402Z,0.80
2019-05-23T19:10:45.985Z,0.72
2019-05-23T19:13:16.977Z,0.60
2019-05-23T19:15:45.982Z,1.02
2019-05-23T19:18:15.023Z,0.78
2019-05-23T19:20:43.990Z,0.80
2019-05-23T19:23:13.849Z,0.50
2019-05-23T19:25:43.431Z,0.80
2019-05-23T19:28:12.455Z,0.60
2019-05-23T19:30:41.428Z,0.60
2019-05-23T19:33:10.447Z,0.60
2019-05-23T19:35:40.060Z,0.70
2019-05-23T19:38:09.641Z,0.88
2019-05-23T19:40:39.191Z,0.70
2019-05-23T19:43:08.828Z,0.80
2019-05-23T19:45:38.898Z,0.72
2019-05-23T19:48:07.883Z,0.60
2019-05-23T19:50:38.028Z,0.68
2019-05-23T19:53:09.336Z,0.70
2019-05-23T19:55:41.261Z,0.62
2019-05-23T19:58:14.310Z,0.60
2019-05-23T20:00:46.324Z,0.85
2019-05-23T20:03:15.752Z,0.80
2019-05-23T20:05:52.276Z,0.60
2019-05-23T20:08:21.249Z,0.90
2019-05-23T20:10:50.454Z,0.75
2019-05-23T20:13:19.483Z,0.80
2019-05-23T20:15:48.861Z,0.72
2019-05-23T20:18:18.329Z,0.57
2019-05-23T20:20:47.491Z,0.95
2019-05-23T20:23:16.936Z,1.02
2019-05-23T20:25:46.453Z,0.70
2019-05-23T20:28:15.949Z,0.85
2019-05-23T20:30:52.412Z,0.90
2019-05-23T20:33:21.607Z,1.10
2019-05-23T20:35:50.892Z,0.80
2019-05-23T20:38:20.408Z,1.02
2019-05-23T20:40:49.565Z,0.88
2019-05-23T20:43:18.536Z,1.10
2019-05-23T20:45:47.490Z,0.90
2019-05-23T20:48:16.783Z,1.10
2019-05-23T20:50:46.001Z,0.90
2019-05-23T20:53:14.957Z,1.30
2019-05-23T20:55:44.017Z,1.10
2019-05-23T20:58:13.203Z,1.32
2019-05-23T21:00:55.864Z,1.00
2019-05-23T21:03:25.689Z,1.40
2019-05-23T21:05:54.900Z,1.22
2019-05-23T21:08:23.880Z,1.57
2019-05-23T21:10:52.794Z,1.52
2019-05-23T21:13:21.786Z,1.50
2019-05-23T21:15:50.900Z,1.87
2019-05-23T21:18:24.662Z,1.52
2019-05-23T21:20:53.708Z,1.55
2019-05-23T21:23:22.606Z,1.90
2019-05-23T21:25:59.294Z,1.30
2019-05-23T21:28:28.423Z,1.60
2019-05-23T21:30:59.176Z,1.60
2019-05-23T21:33:28.588Z,1.60
2019-05-23T21:35:57.544Z,2.25
2019-05-23T21:38:26.917Z,1.45
2019-05-23T21:40:55.822Z,1.87
2019-05-23T21:43:24.743Z,1.57
2019-05-23T21:45:53.837Z,1.70
2019-05-23T21:48:22.776Z,1.30
2019-05-23T21:50:51.742Z,1.75
2019-05-23T21:53:20.683Z,1.60
2019-05-23T21:55:49.601Z,1.60
2019-05-23T21:58:18.651Z,1.45
2019-05-23T22:01:07.144Z,1.60
2019-05-23T22:04:01.958Z,1.50
2019-05-23T22:06:41.500Z,1.60
2019-05-23T22:09:15.026Z,1.50
2019-05-23T22:11:44.229Z,1.55
2019-05-23T22:14:13.451Z,2.08
2019-05-23T22:16:42.823Z,1.55
2019-05-23T22:19:13.602Z,1.40
2019-05-23T22:21:42.564Z,1.50
2019-05-23T22:24:12.201Z,1.20
2019-05-23T22:26:41.170Z,1.37
2019-05-23T22:29:10.188Z,1.75
2019-05-23T22:31:39.249Z,1.30
2019-05-23T22:34:15.792Z,1.60
2019-05-23T22:36:44.809Z,1.10
2019-05-23T22:39:14.432Z,1.35
2019-05-23T22:41:43.391Z,1.60
2019-05-23T22:44:12.888Z,1.22
2019-05-23T22:46:42.533Z,1.37
2019-05-23T22:49:11.586Z,1.47
2019-05-23T22:51:40.490Z,1.40
2019-05-23T22:54:09.429Z,1.27
2019-05-23T22:56:38.603Z,1.30
2019-05-23T22:59:07.681Z,1.22
2019-05-23T23:01:37.017Z,0.85
2019-05-23T23:04:06.230Z,1.20
2019-05-23T23:06:35.313Z,1.20
2019-05-23T23:09:05.744Z,1.00
2019-05-23T23:11:34.791Z,0.98
2019-05-23T23:14:03.683Z,1.10
2019-05-23T23:16:32.616Z,1.20
2019-05-23T23:19:02.143Z,1.30
2019-05-23T23:21:31.444Z,1.02
2019-05-23T23:24:00.439Z,1.05
2019-05-23T23:26:29.372Z,0.95
2019-05-23T23:28:59.735Z,1.05
2019-05-23T23:31:29.547Z,1.00
2019-05-23T23:33:58.523Z,0.93
2019-05-23T23:36:27.403Z,1.15
2019-05-23T23:38:56.367Z,1.00
2019-05-23T23:41:25.299Z,0.80
2019-05-23T23:43:59.264Z,1.30
2019-05-23T23:46:42.606Z,0.80
2019-05-23T23:52:15.651Z,1.10
2019-05-23T23:55:02.337Z,0.80
2019-05-23T23:57:49.113Z,1.05
